HOURLY OBS INDEX

025

Murray Mallee and Upper Southeast

KEITH (MUNKORA)

Site: 025557
Alt: 27.0m
46km WNW of BORDERTOWN


  Time     Wind        Temp  DP   Baro     Rain since   Rain past  Vis(m), Cloud(base in m), Weather
  local        km/h                         9am  last   hr   10m    
Tue 14:30  WNW  7/ 19  31.5  5.8  1013.4    0.0   0.0   0.0   0.0   ----- 
Tue 15:00  WNW  9/ 22  31.3  4.9  1013.0    0.0   0.0   0.0   0.0   ----- 
Tue 15:00  WNW  9/ 22  31.3  4.9  1013.0    0.0   0.0  ----   0.0   ----- 
Tue 15:30  SSW 11/ 20  31.4  5.0  1012.7    0.0   0.0   0.0   0.0   ----- 
Tue 15:30  SSW 11/ 20  31.4  5.0  1012.7    0.0   0.0  ----   0.0   ----- 
Tue 16:00    W 17/ 20  31.8  5.3  1012.4    0.0   0.0   0.0   0.0   ----- 
Tue 16:30  SSE  7/ 17  31.4  5.8  1012.2    0.0   0.0   0.0   0.0   ----- 
Tue 17:00    S 11/ 22  31.9  6.9  1011.9    0.0   0.0   0.0   0.0   ----- 
Tue 17:30  SSW 11/ 20  31.6  7.3  1011.8    0.0   0.0   0.0   0.0   ----- 
Tue 18:00    S 15/ 20  30.9  6.0  1011.9    0.0   0.0   0.0   0.0   ----- 
Tue 18:30  SSW 17/ 22  30.2  8.0  1012.2    0.0   0.0   0.0   0.0   ----- 
Tue 19:00   SW 15/ 20  28.8  8.5  1012.5    0.0   0.0   0.0   0.0   ----- 
Tue 19:00   SW 15/ 20  28.8  8.5  1012.5    0.0   0.0  ----   0.0   ----- 
Tue 19:00   SW 15/ 20  28.8  8.5  1012.5    0.0   0.0  ----   0.0   ----- 
Tue 19:00   SW 15/ 20  28.8  8.5  1012.5    0.0   0.0  ----   0.0   ----- 
Tue 19:30   SW 13/ 19  27.1  8.0  1012.8    0.0   0.0   0.0   0.0   ----- 
Tue 20:00   SW 13/ 17  26.0  7.6  1013.0    0.0   0.0   0.0   0.0   ----- 

LAMEROO (AUSTIN PLAINS)

Site: 025562
Alt: 110.1m
106km NNW of BORDERTOWN


  Time     Wind        Temp  DP   Baro     Rain since   Rain past  Vis(m), Cloud(base in m), Weather
  local        km/h                         9am  last   hr   10m    
Tue 14:30  WNW 13/ 20  31.9  6.2  1013.2    0.0   0.0   0.0   0.0   ----- 
Tue 15:00  SSW 19/ 26  32.2  5.7  1012.9    0.0   0.0   0.0   0.0   ----- 
Tue 15:00  SSW 19/ 26  32.2  5.7  1012.9    0.0   0.0  ----   0.0   ----- 
Tue 15:30    W  9/ 19  32.3  5.7  1012.7    0.0   0.0   0.0   0.0   ----- 
Tue 15:30    W  9/ 19  32.3  5.7  1012.7    0.0   0.0  ----   0.0   ----- 
Tue 16:00  SSW  9/ 20  32.4  5.1  1012.4    0.0   0.0   0.0   0.0   ----- 
Tue 16:30   SW  9/ 15  32.4  5.1  1012.2    0.0   0.0   0.0   0.0   ----- 
Tue 17:00  WSW 11/ 19  32.6  5.2  1011.9    0.0   0.0   0.0   0.0   ----- 
Tue 17:30  WSW 15/ 26  32.5  4.3  1011.8    0.0   0.0   0.0   0.0   ----- 
Tue 18:00   SW 13/ 22  32.3  5.0  1011.9    0.0   0.0   0.0   0.0   ----- 
Tue 18:30   SW 15/ 20  31.5  5.1  1012.1    0.0   0.0   0.0   0.0   ----- 
Tue 19:00   SW 17/ 22  29.9  4.5  1012.3    0.0   0.0   0.0   0.0   ----- 
Tue 19:00   SW 17/ 22  29.9  4.5  1012.3    0.0   0.0  ----   0.0   ----- 
Tue 19:00   SW 17/ 22  29.9  4.5  1012.3    0.0   0.0  ----   0.0   ----- 
Tue 19:00   SW 17/ 22  29.9  4.5  1012.3    0.0   0.0  ----   0.0   ----- 
Tue 19:30  SSW 13/ 15  26.7  3.9  1012.5    0.0   0.0   0.0   0.0   ----- 
Tue 20:00    S 13/ 15  25.4  4.5  1012.8    0.0   0.0   0.0   0.0   -----